Terminal Aerodrome Forecast
Issued by NWS

Home | Current Version | Previous Version | Text Only | Print | Product List | Glossary On
Versions: 1 2 3 4 5 6 7 8 9 10 11 12 13 14 15 16 17 18 19 20 21
758
FTUS46 KSEW 272320
TAFSEA
TAF
KSEA 272320Z 2800/2906 34011G18KT P6SM FEW250
     FM280200 35008KT P6SM FEW250
     FM280400 02005KT P6SM SKC
     FM281900 33008KT P6SM SKC=

USA.gov is the U.S. government's official web portal to all federal, state and local government web resources and services.